Time;durP1;ratioP1;P1;durP2;ratioP2;P2;SDS_P1;SDS_P2;PMS_P1;PMS_P2;Temp;Humidity;BMP_temperature;BMP_pressure;BME280_temperature;BME280_humidity;BME280_pressure;Samples;Min_cycle;Max_cycle;Signal;HPM_P1;HPM_P2
2021/04/12 00:04:49;;;;;;;26.95;16.45;;;;;;;6.82;63.45;98562.72;239363;1202;27274;-71
2021/04/12 00:10:14;;;;;;;26.05;14.20;;;;;;;6.80;63.60;98562.20;239376;1200;23134;-72
2021/04/12 00:15:30;;;;;;;23.30;12.60;;;;;;;6.80;64.20;98561.39;239409;1200;27364;-73
2021/04/12 00:20:53;;;;;;;23.80;13.35;;;;;;;6.78;64.13;98563.53;239413;1199;23245;-72
2021/04/12 00:26:14;;;;;;;28.90;15.90;;;;;;;6.77;63.73;98564.59;239397;1202;23110;-72
2021/04/12 00:31:23;;;;;;;30.05;17.05;;;;;;;6.67;64.07;98558.23;239447;1200;23164;-72
2021/04/12 00:36:44;;;;;;;29.25;16.15;;;;;;;6.61;64.21;98559.28;239450;1200;23125;-72
2021/04/12 00:41:57;;;;;;;24.10;15.70;;;;;;;6.47;64.30;98548.38;239291;1199;24504;-73
2021/04/12 00:47:20;;;;;;;29.40;16.50;;;;;;;6.33;64.27;98550.77;239374;1199;23119;-74
2021/04/12 00:52:57;;;;;;;29.30;16.13;;;;;;;6.20;64.44;98543.33;239343;1200;23151;-72
2021/04/12 00:58:10;;;;;;;26.05;16.10;;;;;;;6.13;65.00;98540.92;239456;1199;23119;-71
2021/04/12 01:03:35;;;;;;;22.90;14.47;;;;;;;6.12;65.30;98549.17;239435;1198;23115;-73
2021/04/12 01:09:21;;;;;;;21.27;12.43;;;;;;;6.08;65.49;98540.12;239724;1200;23114;-72
2021/04/12 01:15:03;;;;;;;15.47;9.57;;;;;;;6.02;65.84;98549.95;239581;1200;23140;-71
2021/04/12 01:20:27;;;;;;;19.75;12.20;;;;;;;5.93;65.59;98539.02;239482;1200;23111;-72
2021/04/12 01:25:35;;;;;;;16.75;10.70;;;;;;;5.85;65.96;98531.55;239359;1200;23144;-71
2021/04/12 01:31:09;;;;;;;19.13;12.63;;;;;;;5.79;66.06;98532.58;239496;1200;23118;-72
2021/04/12 01:36:48;;;;;;;20.63;12.83;;;;;;;5.73;66.37;98542.41;239477;1200;23256;-72
2021/04/12 01:42:12;;;;;;;14.10;9.95;;;;;;;5.65;66.81;98533.09;239516;1199;23120;-72
2021/04/12 01:47:27;;;;;;;20.80;13.70;;;;;;;5.64;67.29;98530.70;239224;1199;23115;-74
2021/04/12 01:52:51;;;;;;;21.25;13.80;;;;;;;5.66;67.29;98539.20;239265;1200;23122;-72
2021/04/12 01:58:17;;;;;;;21.90;13.30;;;;;;;5.63;67.52;98540.52;239602;1200;23122;-71
2021/04/12 02:03:36;;;;;;;23.97;13.03;;;;;;;5.63;67.81;98540.52;239375;1199;23207;-73
2021/04/12 02:09:04;;;;;;;18.20;12.50;;;;;;;5.62;67.89;98538.13;239245;1199;23108;-72
2021/04/12 02:14:18;;;;;;;20.70;13.30;;;;;;;5.65;68.04;98537.59;239224;1199;23128;-72
2021/04/12 02:19:33;;;;;;;19.83;13.50;;;;;;;5.57;67.80;98538.09;239524;1200;23266;-72
2021/04/12 02:24:52;;;;;;;19.65;12.10;;;;;;;5.46;68.16;98529.31;239448;1197;23881;-72
2021/04/12 02:30:22;;;;;;;23.95;15.05;;;;;;;5.42;68.05;98529.03;239423;1197;23126;-72
2021/04/12 02:35:33;;;;;;;25.85;16.30;;;;;;;5.41;68.03;98526.63;239407;1200;23118;-73
2021/04/12 02:40:36;;;;;;;23.00;14.50;;;;;;;5.36;68.23;98534.57;239623;1200;23130;-72
2021/04/12 02:46:00;;;;;;;24.87;14.17;;;;;;;5.28;68.17;98530.57;239577;1199;23144;-73
2021/04/12 02:51:42;;;;;;;21.30;12.70;;;;;;;5.20;68.98;98528.41;239286;1199;23115;-72
2021/04/12 02:56:50;;;;;;;;;;;;;;;5.19;69.03;98535.59;239563;1204;23118;-72
2021/04/12 03:02:31;;;;;;;20.03;13.17;;;;;;;5.17;68.82;98527.06;239543;1199;21792;-71
2021/04/12 03:08:08;;;;;;;20.67;14.30;;;;;;;5.15;69.02;98529.19;239495;1200;23121;-71
2021/04/12 03:13:30;;;;;;;19.50;13.25;;;;;;;5.09;69.15;98531.03;239593;1199;23224;-73
2021/04/12 03:19:06;;;;;;;18.85;12.70;;;;;;;5.04;69.26;98524.89;239424;1198;23121;-71
2021/04/12 03:24:29;;;;;;;21.00;14.20;;;;;;;4.98;69.34;98521.41;239433;1199;23122;-72
2021/04/12 03:29:50;;;;;;;19.80;13.30;;;;;;;4.97;69.69;98519.80;239479;1200;23118;-72
2021/04/12 03:35:13;;;;;;;25.85;14.00;;;;;;;4.97;69.72;98519.80;239375;1200;23115;-72
2021/04/12 03:40:24;;;;;;;21.75;12.70;;;;;;;4.95;69.58;98511.28;239408;1199;23119;-72
2021/04/12 03:45:43;;;;;;;18.35;13.40;;;;;;;4.88;69.35;98516.84;239315;1200;23118;-73
2021/04/12 03:51:27;;;;;;;23.45;14.35;;;;;;;4.78;69.85;98506.97;239369;1198;23139;-72
2021/04/12 03:56:59;;;;;;;22.00;13.30;;;;;;;4.77;70.70;98520.47;239312;1202;23118;-72
2021/04/12 04:02:27;;;;;;;25.45;13.90;;;;;;;4.79;70.72;98516.51;239321;1199;23103;-72
2021/04/12 04:07:49;;;;;;;18.15;12.35;;;;;;;4.81;70.92;98521.55;239562;1199;23218;-72
2021/04/12 04:13:28;;;;;;;23.63;14.70;;;;;;;4.84;70.94;98534.34;239340;1201;23094;-72
2021/04/12 04:18:36;;;;;;;17.90;13.50;;;;;;;4.89;70.62;98531.70;239341;1199;23451;-72
2021/04/12 04:24:10;;;;;;;21.60;13.80;;;;;;;4.97;71.27;98541.05;239459;1199;23125;-72
2021/04/12 04:29:37;;;;;;;26.15;14.55;;;;;;;5.01;71.25;98547.44;239375;1200;23125;-72
2021/04/12 04:35:05;;;;;;;24.35;14.70;;;;;;;5.05;71.27;98551.18;239478;1199;23117;-73
2021/04/12 04:40:22;;;;;;;25.47;15.40;;;;;;;5.12;70.99;98551.74;239138;1200;23118;-72
2021/04/12 04:45:31;;;;;;;23.80;14.80;;;;;;;5.20;71.45;98560.27;239317;1200;23118;-72
2021/04/12 04:50:49;;;;;;;23.23;15.00;;;;;;;5.27;71.28;98564.31;239214;1200;23141;-71
2021/04/12 04:56:36;;;;;;;23.05;14.30;;;;;;;5.38;71.32;98574.97;239452;1198;23175;-72
2021/04/12 05:01:54;;;;;;;28.20;16.10;;;;;;;5.51;71.23;98585.11;239261;1200;23249;-72
2021/04/12 05:07:01;;;;;;;27.60;16.80;;;;;;;5.67;71.41;98588.64;239491;1200;23122;-72
2021/04/12 05:12:17;;;;;;;23.60;13.70;;;;;;;5.82;71.40;98583.38;239586;1199;23140;-72
2021/04/12 05:17:47;;;;;;;23.75;15.05;;;;;;;5.91;71.45;98588.98;239636;1200;27332;-72
2021/04/12 05:23:24;;;;;;;25.40;17.40;;;;;;;6.10;71.16;98593.83;239580;1199;23144;-72
2021/04/12 05:28:36;;;;;;;25.00;15.70;;;;;;;6.34;71.43;98591.49;239592;1199;24529;-73
2021/04/12 05:33:47;;;;;;;20.77;12.90;;;;;;;6.59;70.96;98587.23;239509;1199;23122;-73
2021/04/12 05:39:17;;;;;;;25.00;14.55;;;;;;;6.80;71.26;98585.35;239423;1200;23127;-72
2021/04/12 05:44:51;;;;;;;19.10;13.07;;;;;;;7.03;71.29;98597.31;239862;1199;23145;-72
2021/04/12 05:50:19;;;;;;;24.20;14.75;;;;;;;7.28;71.41;98598.34;240149;1199;23237;-72
2021/04/12 05:55:47;;;;;;;29.30;17.87;;;;;;;7.52;70.97;98601.19;240124;1199;23140;-73
2021/04/12 06:01:28;;;;;;;33.00;20.00;;;;;;;7.81;70.76;98613.88;240069;1199;23122;-71
2021/04/12 06:07:06;;;;;;;29.25;17.50;;;;;;;8.18;70.14;98617.94;240221;1197;23115;-72
2021/04/12 06:12:48;;;;;;;29.57;18.60;;;;;;;8.52;69.63;98635.90;240408;1197;23134;-72
2021/04/12 06:18:18;;;;;;;26.45;17.05;;;;;;;8.79;69.55;98631.98;240113;1198;23144;-72
2021/04/12 06:23:36;;;;;;;28.30;18.53;;;;;;;9.01;68.83;98640.34;240101;1200;23117;-73
2021/04/12 06:28:38;;;;;;;28.75;15.65;;;;;;;9.27;68.52;98650.78;240017;1199;23706;-73
2021/04/12 06:34:03;;;;;;;22.95;14.55;;;;;;;9.52;68.39;98639.02;240779;1199;23125;-73
2021/04/12 06:39:28;;;;;;;20.03;13.33;;;;;;;9.83;67.86;98632.52;239915;1199;23172;-71
2021/04/12 06:45:01;;;;;;;16.70;11.50;;;;;;;10.16;66.93;98633.44;239884;1203;23133;-72
2021/04/12 06:50:30;;;;;;;11.03;7.80;;;;;;;10.46;65.98;98644.81;239937;1199;23143;-72
2021/04/12 06:56:18;;;;;;;10.00;6.90;;;;;;;10.72;65.06;98639.88;239996;1200;23188;-72
2021/04/12 07:01:57;;;;;;;16.20;9.30;;;;;;;11.02;64.73;98637.77;239468;1200;23110;-72
2021/04/12 07:07:19;;;;;;;8.40;5.90;;;;;;;11.25;63.31;98640.61;239509;1196;23147;-72
2021/04/12 07:12:34;;;;;;;8.30;4.90;;;;;;;11.55;63.32;98639.23;239246;1197;23134;-72
2021/04/12 07:17:48;;;;;;;7.80;3.70;;;;;;;11.81;61.55;98642.21;239437;1196;23258;-71
2021/04/12 07:23:13;;;;;;;5.83;2.90;;;;;;;12.06;60.00;98642.81;239423;1198;23130;-73
2021/04/12 07:28:38;;;;;;;4.83;2.60;;;;;;;12.25;60.25;98641.88;239383;1196;23118;-72
2021/04/12 07:34:10;;;;;;;4.60;3.30;;;;;;;12.49;59.44;98649.66;239380;1200;23119;-73
2021/04/12 07:39:24;;;;;;;4.27;3.03;;;;;;;12.70;58.62;98655.34;239361;1200;23146;-73
2021/04/12 07:44:39;;;;;;;6.40;3.35;;;;;;;12.80;57.81;98652.44;239366;1201;23127;-73
2021/04/12 07:50:13;;;;;;;6.37;3.50;;;;;;;13.00;57.10;98663.80;239503;1199;23208;-72
2021/04/12 07:55:26;;;;;;;4.33;3.23;;;;;;;13.17;57.24;98676.55;239466;1167;49565;-72
2021/04/12 08:01:03;;;;;;;6.13;3.23;;;;;;;13.35;56.06;98691.70;239534;1200;23130;-71
2021/04/12 08:06:26;;;;;;;5.70;3.80;;;;;;;13.52;56.11;98699.06;239889;1199;23118;-72
2021/04/12 08:11:34;;;;;;;4.70;3.40;;;;;;;13.50;55.83;98703.98;239413;1199;23128;-71
2021/04/12 08:17:17;;;;;;;4.80;3.40;;;;;;;13.64;55.82;98703.08;239578;1198;23134;-72
2021/04/12 08:22:45;;;;;;;3.23;2.53;;;;;;;14.01;55.71;98712.55;239603;1200;23134;-72
2021/04/12 08:28:25;;;;;;;6.03;3.67;;;;;;;14.47;54.61;98699.66;239548;1197;23134;-73
2021/04/12 08:34:06;;;;;;;9.60;5.20;;;;;;;14.93;54.51;98712.84;239993;1197;23127;-73
2021/04/12 08:39:46;;;;;;;6.50;5.40;;;;;;;15.06;52.69;98698.41;239936;1196;23119;-72
2021/04/12 08:45:10;;;;;;;7.90;5.50;;;;;;;14.86;52.56;98722.22;239635;1202;23114;-72
2021/04/12 08:50:38;;;;;;;8.65;5.95;;;;;;;14.76;52.67;98708.26;239660;1200;23281;-73
2021/04/12 08:56:05;;;;;;;9.80;7.00;;;;;;;14.71;52.55;98711.91;239491;1200;23228;-72
2021/04/12 09:01:20;;;;;;;10.05;7.20;;;;;;;14.80;52.83;98728.90;239592;1200;23107;-72
2021/04/12 09:07:00;;;;;;;11.67;8.33;;;;;;;14.96;52.20;98729.20;239359;1199;23125;-72
2021/04/12 09:12:15;;;;;;;10.70;8.40;;;;;;;15.17;51.82;98717.76;239230;1199;23115;-73
2021/04/12 09:17:55;;;;;;;12.10;8.90;;;;;;;15.35;52.21;98719.30;239458;1196;24309;-72
2021/04/12 09:23:37;;;;;;;10.50;8.40;;;;;;;15.35;51.59;98721.22;239381;1199;23117;-73
2021/04/12 09:28:57;;;;;;;11.40;10.00;;;;;;;15.30;52.00;98732.95;239431;1200;23108;-71
2021/04/12 09:34:37;;;;;;;17.15;13.30;;;;;;;14.93;52.69;98729.03;239455;1200;23126;-72
2021/04/12 09:40:03;;;;;;;15.50;12.35;;;;;;;14.46;52.78;98727.71;239545;1196;23565;-72
2021/04/12 09:45:27;;;;;;;16.20;11.53;;;;;;;14.17;53.72;98734.48;239689;1199;23095;-71
2021/04/12 09:50:36;;;;;;;14.55;11.70;;;;;;;14.23;54.88;98728.94;239695;1199;23567;-71
2021/04/12 09:56:04;;;;;;;19.70;16.75;;;;;;;14.16;55.22;98722.12;239548;1199;23122;-72
2021/04/12 10:01:19;;;;;;;20.20;16.10;;;;;;;14.02;55.68;98721.45;239640;1200;25987;-72
2021/04/12 10:06:22;;;;;;;20.03;15.88;;;;;;;14.05;55.50;98718.13;239898;1199;23169;-75
2021/04/12 10:11:40;;;;;;;19.60;15.40;;;;;;;14.03;55.79;98747.26;239882;1198;23220;-73
2021/04/12 10:17:02;;;;;;;20.30;15.00;;;;;;;14.11;56.09;98743.80;239419;1200;23420;-73
2021/04/12 10:22:12;;;;;;;19.90;15.20;;;;;;;14.07;55.98;98748.22;239428;1198;23119;-73
2021/04/12 10:27:19;;;;;;;;;;;;;;;14.09;56.13;98747.91;239461;1204;23115;-71
2021/04/12 10:32:30;;;;;;;21.85;16.65;;;;;;;14.08;56.83;98765.98;239489;1200;21603;-71
2021/04/12 10:37:36;;;;;;;20.10;14.60;;;;;;;14.07;56.43;98767.08;239717;1199;25094;-71
2021/04/12 10:43:22;;;;;;;15.93;12.53;;;;;;;14.10;56.01;98762.97;239314;1200;23116;-72
2021/04/12 10:48:42;;;;;;;18.80;13.90;;;;;;;14.36;55.30;98761.14;239497;1202;23160;-72
2021/04/12 10:54:34;;;;;;;19.25;12.85;;;;;;;14.91;55.83;98769.80;239632;1199;23282;-71
2021/04/12 11:00:05;;;;;;;19.50;14.90;;;;;;;15.04;54.48;98773.48;239903;1199;22900;-72
2021/04/12 11:05:13;;;;;;;20.65;15.85;;;;;;;14.59;54.78;98768.33;240017;1199;23144;-73
2021/04/12 11:10:32;;;;;;;20.70;16.20;;;;;;;14.77;55.70;98774.56;239743;1200;23122;-71
2021/04/12 11:16:01;;;;;;;23.53;16.00;;;;;;;15.08;55.09;98770.92;239817;1199;23145;-72
2021/04/12 11:21:29;;;;;;;16.30;13.95;;;;;;;14.93;54.36;98785.67;240027;1199;23114;-71
2021/04/12 11:27:10;;;;;;;22.30;18.10;;;;;;;14.19;55.21;98788.05;240110;1200;23182;-71
2021/04/12 11:32:30;;;;;;;26.90;19.50;;;;;;;13.85;57.15;98790.28;239638;1199;23095;-71
2021/04/12 11:38:11;;;;;;;26.43;18.43;;;;;;;13.70;58.15;98806.83;239547;1200;24908;-71
2021/04/12 11:43:23;;;;;;;24.60;18.80;;;;;;;13.71;58.57;98805.73;239132;1200;23116;-71
2021/04/12 11:48:44;;;;;;;25.50;20.03;;;;;;;13.85;59.09;98811.83;239532;1200;23124;-71
2021/04/12 11:54:00;;;;;;;24.95;19.80;;;;;;;13.72;58.33;98823.45;239365;1200;23144;-72
2021/04/12 11:59:23;;;;;;;27.10;19.15;;;;;;;13.62;58.94;98837.97;239489;1199;23558;-73
2021/04/12 12:04:55;;;;;;;26.50;19.00;;;;;;;13.45;58.75;98846.72;239385;1200;23220;-71
2021/04/12 12:10:01;;;;;;;25.20;18.60;;;;;;;13.11;59.02;98853.38;239401;1199;23087;-72
2021/04/12 12:15:07;;;;;;;28.25;18.10;;;;;;;12.64;59.80;98853.55;239404;1199;23078;-70
2021/04/12 12:20:23;;;;;;;20.90;14.90;;;;;;;12.22;61.23;98860.02;239463;1200;23112;-72
2021/04/12 12:25:47;;;;;;;21.85;14.80;;;;;;;11.91;62.06;98861.32;239355;1200;26238;-69
2021/04/12 12:31:35;;;;;;;19.85;14.30;;;;;;;11.56;62.62;98865.40;239073;1199;23171;-71
2021/04/12 12:37:16;;;;;;;16.40;12.90;;;;;;;11.15;63.81;98864.12;239183;1202;26302;-72
2021/04/12 12:42:38;;;;;;;15.70;11.20;;;;;;;10.97;65.47;98873.73;239433;1197;23112;-72
2021/04/12 12:47:48;;;;;;;14.20;9.83;;;;;;;10.87;65.93;98861.27;239967;1199;23115;-71
2021/04/12 12:53:00;;;;;;;13.43;10.57;;;;;;;10.78;65.84;98866.45;239664;1200;23125;-72
2021/04/12 12:58:16;;;;;;;13.37;9.07;;;;;;;10.73;66.04;98871.89;239502;1200;23134;-71
2021/04/12 13:03:31;;;;;;;10.77;8.30;;;;;;;10.69;66.25;98889.63;238951;1200;23138;-73
2021/04/12 13:08:36;;;;;;;11.60;8.60;;;;;;;10.55;66.50;98886.04;239322;1199;23112;-72
2021/04/12 13:13:40;;;;;;;10.65;7.30;;;;;;;10.37;66.72;98912.45;239255;1199;23148;-72
2021/04/12 13:18:55;;;;;;;10.00;6.40;;;;;;;10.06;67.44;98910.04;239230;1200;23170;-71
2021/04/12 13:24:16;;;;;;;7.90;6.50;;;;;;;9.83;67.55;98908.88;239374;1198;23112;-72
2021/04/12 13:29:26;;;;;;;9.27;7.37;;;;;;;9.55;68.81;98913.89;239472;1200;23135;-71
2021/04/12 13:34:55;;;;;;;9.30;7.63;;;;;;;9.29;69.24;98926.64;239377;1200;23208;-75
2021/04/12 13:40:17;;;;;;;10.83;7.50;;;;;;;9.08;70.09;98917.94;239432;1200;27693;-71
2021/04/12 13:45:31;;;;;;;10.77;7.77;;;;;;;8.86;70.13;98931.64;239329;1202;23265;-73
2021/04/12 13:50:57;;;;;;;7.50;6.27;;;;;;;8.69;70.98;98951.45;239107;1202;23163;-72
2021/04/12 13:56:15;;;;;;;6.50;5.80;;;;;;;8.55;71.49;98939.75;239301;1197;23112;-71
2021/04/12 14:01:27;;;;;;;6.10;4.63;;;;;;;8.34;72.60;98931.74;240349;1198;23260;-71
2021/04/12 14:07:01;;;;;;;7.40;5.20;;;;;;;8.28;71.86;98951.52;240159;1200;23121;-70
2021/04/12 14:12:07;;;;;;;6.87;5.03;;;;;;;8.20;71.86;98982.19;240224;1200;23192;-71
2021/04/12 14:17:36;;;;;;;6.80;4.90;;;;;;;8.15;72.17;98978.73;239399;1200;23134;-72
2021/04/12 14:22:45;;;;;;;7.73;4.77;;;;;;;8.08;72.15;98978.98;239249;1199;23124;-72
2021/04/12 14:27:50;;;;;;;5.80;4.60;;;;;;;8.00;72.34;98975.00;239267;1200;23122;-72
2021/04/12 14:33:06;;;;;;;6.00;4.17;;;;;;;7.92;72.26;98980.86;239540;1200;23121;-73
2021/04/12 14:38:09;;;;;;;4.75;3.80;;;;;;;7.84;72.36;98984.05;239471;1196;26950;-71
2021/04/12 14:43:30;;;;;;;4.95;3.70;;;;;;;7.76;73.06;98981.89;239348;1198;23145;-73
2021/04/12 14:48:47;;;;;;;5.30;3.50;;;;;;;7.69;72.91;98998.97;239328;1202;26128;-72
2021/04/12 14:54:18;;;;;;;4.80;4.00;;;;;;;7.63;72.71;99000.00;239210;1198;23143;-72
2021/04/12 15:00:06;;;;;;;5.73;3.67;;;;;;;7.52;73.41;99003.70;239280;1200;23278;-75
2021/04/12 15:05:14;;;;;;;6.15;4.85;;;;;;;7.44;73.65;98990.88;239303;1198;23203;-73
2021/04/12 15:10:38;;;;;;;8.30;5.95;;;;;;;7.31;73.36;98992.97;239412;1199;23142;-72
2021/04/12 15:15:47;;;;;;;9.03;6.13;;;;;;;7.21;73.46;99008.92;239127;1199;23132;-72
2021/04/12 15:21:13;;;;;;;9.70;6.60;;;;;;;7.07;74.63;99002.48;239086;1199;23382;-72
2021/04/12 15:26:24;;;;;;;10.55;6.65;;;;;;;6.93;74.48;99018.91;238804;1200;23214;-72
2021/04/12 15:31:37;;;;;;;9.93;7.40;;;;;;;6.82;74.93;99025.24;239132;1200;23151;-72
2021/04/12 15:36:53;;;;;;;11.50;7.55;;;;;;;6.77;75.13;99054.49;239295;1199;26954;-72
2021/04/12 15:42:19;;;;;;;9.73;6.73;;;;;;;6.68;75.41;99043.52;239277;1202;23292;-72
2021/04/12 15:47:25;;;;;;;10.10;6.50;;;;;;;6.63;75.98;99051.47;239138;1200;23171;-72
2021/04/12 15:52:34;;;;;;;10.30;6.70;;;;;;;6.60;76.07;99063.42;239091;1200;23308;-71
2021/04/12 15:57:38;;;;;;;11.80;8.10;;;;;;;6.51;75.84;99064.96;239180;1200;23118;-72
2021/04/12 16:02:48;;;;;;;10.40;7.50;;;;;;;6.45;76.02;99055.31;239296;1200;26213;-71
2021/04/12 16:07:58;;;;;;;10.90;8.30;;;;;;;6.32;76.70;99052.05;239110;1202;23567;-72
2021/04/12 16:13:24;;;;;;;11.90;8.40;;;;;;;6.21;76.82;99053.02;238875;1202;26024;-72
2021/04/12 16:18:35;;;;;;;12.47;8.10;;;;;;;6.12;76.96;99062.50;239175;1200;23225;-72
2021/04/12 16:23:50;;;;;;;9.35;7.10;;;;;;;6.04;76.73;99073.59;239195;1200;23330;-73
2021/04/12 16:28:59;;;;;;;8.73;6.93;;;;;;;5.92;76.58;99071.84;239238;1199;23149;-72
2021/04/12 16:34:12;;;;;;;9.45;6.25;;;;;;;5.81;77.05;99094.06;239002;1200;23146;-72
2021/04/12 16:39:40;;;;;;;9.07;7.07;;;;;;;5.66;77.17;99079.52;239064;1200;23118;-73
2021/04/12 16:45:02;;;;;;;9.00;6.80;;;;;;;5.55;77.58;99091.09;239298;1199;23137;-73
2021/04/12 16:50:14;;;;;;;10.30;6.70;;;;;;;5.43;77.92;99087.77;238873;1198;23129;-72
2021/04/12 16:55:26;;;;;;;9.90;6.90;;;;;;;5.33;78.34;99096.41;239075;1199;23129;-72
2021/04/12 17:00:48;;;;;;;8.85;6.60;;;;;;;5.21;78.42;99101.81;239081;1198;23151;-72
2021/04/12 17:06:23;;;;;;;8.40;6.20;;;;;;;5.12;78.57;99113.90;239250;1200;23133;-73
2021/04/12 17:11:37;;;;;;;10.00;6.75;;;;;;;5.05;78.93;99113.27;239221;1202;23148;-72
2021/04/12 17:16:50;;;;;;;9.60;5.67;;;;;;;4.97;79.70;99125.91;239335;1200;23125;-71
2021/04/12 17:22:21;;;;;;;9.35;6.45;;;;;;;4.91;78.89;99121.58;239258;1200;23125;-72
2021/04/12 17:27:26;;;;;;;9.60;6.60;;;;;;;4.90;79.12;99133.24;239319;1199;23253;-72
2021/04/12 17:32:42;;;;;;;11.40;6.60;;;;;;;4.83;79.49;99140.56;239670;1198;23116;-71
2021/04/12 17:37:50;;;;;;;11.00;7.20;;;;;;;4.76;79.04;99140.72;239313;1199;23364;-72
2021/04/12 17:43:24;;;;;;;11.90;7.30;;;;;;;4.78;79.04;99146.61;239218;1200;23127;-72
2021/04/12 17:48:42;;;;;;;12.33;8.03;;;;;;;4.79;78.92;99144.75;238824;1200;23127;-75
2021/04/12 17:53:51;;;;;;;12.60;6.20;;;;;;;4.73;79.57;99148.34;239127;1200;23208;-72
2021/04/12 17:59:18;;;;;;;10.10;6.20;;;;;;;4.68;79.02;99153.59;238886;1200;23120;-72
2021/04/12 18:04:33;;;;;;;8.23;5.40;;;;;;;4.60;79.13;99160.08;239073;1199;23292;-72
2021/04/12 18:09:42;;;;;;;11.65;6.00;;;;;;;4.47;79.21;99144.48;239071;1200;26393;-72
2021/04/12 18:15:09;;;;;;;10.50;6.30;;;;;;;4.33;80.06;99168.63;239527;1199;23259;-72
2021/04/12 18:20:22;;;;;;;10.03;6.13;;;;;;;4.28;79.88;99173.84;239560;1199;23122;-72
2021/04/12 18:25:41;;;;;;;12.60;7.40;;;;;;;4.26;80.32;99199.80;239324;1198;23141;-73
2021/04/12 18:30:50;;;;;;;9.83;6.17;;;;;;;4.24;80.06;99212.48;239046;1202;23144;-72
2021/04/12 18:36:00;;;;;;;8.00;5.55;;;;;;;4.23;80.10;99219.64;239498;1200;23123;-72
2021/04/12 18:41:19;;;;;;;7.77;4.63;;;;;;;4.19;79.49;99220.36;239315;1200;23122;-73
2021/04/12 18:46:37;;;;;;;7.45;4.50;;;;;;;4.16;79.84;99253.45;239124;1200;23144;-72
2021/04/12 18:52:18;;;;;;;6.30;4.60;;;;;;;4.12;80.00;99252.30;239110;1200;23170;-72
2021/04/12 18:57:46;;;;;;;7.60;4.40;;;;;;;4.06;80.05;99261.20;239291;1200;23122;-72
2021/04/12 19:03:16;;;;;;;5.83;3.97;;;;;;;3.99;79.82;99260.49;239355;1199;23208;-72
2021/04/12 19:08:39;;;;;;;6.83;4.60;;;;;;;3.96;79.88;99255.66;239068;1200;23128;-72
2021/04/12 19:13:53;;;;;;;7.30;4.50;;;;;;;3.86;80.18;99261.55;239316;1198;24584;-72
2021/04/12 19:19:20;;;;;;;6.50;5.20;;;;;;;3.75;79.97;99265.84;239324;1200;22905;-72
2021/04/12 19:24:51;;;;;;;6.50;5.10;;;;;;;3.65;80.41;99258.47;239513;1197;23121;-72
2021/04/12 19:29:53;;;;;;;;;;;;;;;3.58;80.94;99252.45;239402;1200;23241;-72
2021/04/12 19:35:34;;;;;;;6.30;4.50;;;;;;;3.49;81.78;99262.59;239230;1200;21588;-72
2021/04/12 19:40:58;;;;;;;6.80;5.20;;;;;;;3.43;81.77;99266.17;239235;1199;23122;-72
2021/04/12 19:46:07;;;;;;;8.00;5.90;;;;;;;3.40;81.26;99277.20;239254;1200;23119;-72
2021/04/12 19:51:16;;;;;;;8.10;5.90;;;;;;;3.34;81.60;99286.88;239197;1200;23127;-72
2021/04/12 19:56:46;;;;;;;8.05;4.95;;;;;;;3.22;81.42;99280.77;239303;1198;23142;-72
2021/04/12 20:01:51;;;;;;;7.60;4.90;;;;;;;3.09;81.30;99289.70;239173;1199;23237;-73
2021/04/12 20:07:00;;;;;;;5.73;4.37;;;;;;;3.03;81.87;99285.32;239328;1200;23124;-73
2021/04/12 20:12:40;;;;;;;6.10;4.70;;;;;;;2.96;82.03;99305.79;239278;1202;23138;-73
2021/04/12 20:18:02;;;;;;;5.50;4.25;;;;;;;2.86;82.31;99308.97;239400;1198;23139;-73
2021/04/12 20:23:25;;;;;;;7.23;4.83;;;;;;;2.78;82.42;99302.14;239444;1199;23118;-76
2021/04/12 20:28:54;;;;;;;8.80;5.90;;;;;;;2.67;82.46;99305.55;239328;1202;23240;-76
2021/04/12 20:33:56;;;;;;;6.85;5.40;;;;;;;2.53;82.37;99313.66;239411;1200;23124;-78
2021/04/12 20:39:13;;;;;;;7.40;4.80;;;;;;;2.39;82.55;99315.66;239460;1200;23128;-76
2021/04/12 20:44:40;;;;;;;7.97;5.30;;;;;;;2.27;82.75;99332.45;239774;1199;23083;-76
2021/04/12 20:49:55;;;;;;;8.40;5.23;;;;;;;2.11;83.11;99326.72;239467;1199;23131;-74
2021/04/12 20:55:54;;;;;;;6.75;5.30;;;;;;;2.04;82.50;99336.55;239251;1198;23179;-76
2021/04/12 21:01:11;;;;;;;7.70;5.30;;;;;;;1.88;82.93;99337.94;238294;1203;23187;-75
2021/04/12 21:06:54;;;;;;;6.93;5.00;;;;;;;1.74;83.01;99349.65;239082;1199;23184;-75
2021/04/12 21:12:30;;;;;;;7.25;4.75;;;;;;;1.51;82.45;99336.00;239027;1202;24774;-75
2021/04/12 21:17:57;;;;;;;6.75;4.75;;;;;;;1.32;82.44;99343.03;238968;1202;23157;-75
2021/04/12 21:23:18;;;;;;;7.15;4.95;;;;;;;1.21;83.13;99351.64;239222;1200;23131;-75
2021/04/12 21:28:24;;;;;;;6.90;5.40;;;;;;;1.15;83.38;99349.86;239314;1202;23175;-75
2021/04/12 21:33:51;;;;;;;8.00;5.20;;;;;;;1.14;82.97;99356.95;239282;1200;23147;-76
2021/04/12 21:39:16;;;;;;;7.20;4.90;;;;;;;1.13;83.69;99357.96;239219;1199;23118;-75
2021/04/12 21:44:28;;;;;;;7.60;5.10;;;;;;;1.13;83.99;99359.80;239128;1202;23179;-75
2021/04/12 21:49:32;;;;;;;6.90;4.95;;;;;;;1.14;84.12;99364.86;239266;1200;23134;-75
2021/04/12 21:55:01;;;;;;;6.30;4.40;;;;;;;1.19;84.18;99378.24;239246;1199;23124;-75
2021/04/12 22:00:22;;;;;;;7.50;4.37;;;;;;;1.24;83.64;99380.23;239188;1198;23137;-75
2021/04/12 22:05:39;;;;;;;7.90;5.13;;;;;;;1.27;84.09;99389.56;239221;1198;23145;-75
2021/04/12 22:10:54;;;;;;;5.45;4.35;;;;;;;1.28;84.32;99380.64;239310;1202;23131;-75
2021/04/12 22:16:23;;;;;;;6.53;5.10;;;;;;;1.24;84.24;99400.55;239250;1199;23257;-76
2021/04/12 22:21:42;;;;;;;6.00;4.55;;;;;;;1.19;84.13;99394.08;239435;1200;23122;-75
2021/04/12 22:27:01;;;;;;;6.65;5.00;;;;;;;1.14;84.15;99396.53;239351;1200;25634;-75
2021/04/12 22:32:47;;;;;;;7.00;4.60;;;;;;;1.08;84.27;99397.39;239125;1200;24271;-75
2021/04/12 22:43:40;;;;;;;5.60;4.60;;;;;;;0.91;84.17;99415.53;239428;1200;23571;-75
2021/04/12 22:48:58;;;;;;;6.00;4.20;;;;;;;0.82;84.30;99407.02;239459;1200;24733;-75
2021/04/12 22:54:37;;;;;;;6.33;4.13;;;;;;;0.75;84.28;99413.35;239266;1200;23127;-75
2021/04/12 23:00:03;;;;;;;5.80;3.60;;;;;;;0.67;84.22;99417.02;239175;1199;23271;-76
2021/04/12 23:05:26;;;;;;;4.57;3.60;;;;;;;0.58;84.77;99420.91;239268;1199;23253;-76
2021/04/12 23:10:43;;;;;;;5.27;3.37;;;;;;;0.56;84.43;99430.84;239356;1199;23499;-75
2021/04/12 23:15:47;;;;;;;5.60;4.00;;;;;;;0.52;84.85;99430.45;239412;1200;23125;-76
2021/04/12 23:20:56;;;;;;;4.75;3.70;;;;;;;0.51;84.75;99429.63;239222;1199;23292;-77
2021/04/12 23:26:04;;;;;;;4.70;3.90;;;;;;;0.50;84.60;99438.58;239387;1198;23138;-77
2021/04/12 23:31:09;;;;;;;5.30;4.30;;;;;;;0.49;84.65;99439.58;239374;1202;23574;-76
2021/04/12 23:36:25;;;;;;;5.33;4.37;;;;;;;0.49;84.34;99447.49;239274;1199;26087;-77
2021/04/12 23:41:30;;;;;;;6.60;4.60;;;;;;;0.47;85.24;99436.33;239276;1198;23143;-78
2021/04/12 23:46:43;;;;;;;6.03;4.50;;;;;;;0.48;85.26;99429.25;239390;1202;23117;-77
2021/04/12 23:51:51;;;;;;;5.30;4.20;;;;;;;0.46;85.21;99428.63;239294;1199;23176;-76
2021/04/12 23:56:54;;;;;;;5.30;4.45;;;;;;;0.46;85.14;99434.73;239458;1200;23116;-77
